createdAt,value
2018-11-11T00:01:03.465Z,31.77
2018-11-11T00:03:33.194Z,31.87
2018-11-11T00:06:02.908Z,32.40
2018-11-11T00:08:32.644Z,33.37
2018-11-11T00:11:02.480Z,30.30
2018-11-11T00:13:32.149Z,31.17
2018-11-11T00:16:01.912Z,31.93
2018-11-11T00:18:31.741Z,31.23
2018-11-11T00:21:01.445Z,31.37
2018-11-11T00:23:31.090Z,30.77
2018-11-11T00:26:00.675Z,33.60
2018-11-11T00:28:30.495Z,31.13
2018-11-11T00:31:00.226Z,33.10
2018-11-11T00:33:30.002Z,32.00
2018-11-11T00:35:59.632Z,29.97
2018-11-11T00:38:29.361Z,29.90
2018-11-11T00:40:59.112Z,30.37
2018-11-11T00:43:28.879Z,30.70
2018-11-11T00:45:58.654Z,30.77
2018-11-11T00:48:28.334Z,33.63
2018-11-11T00:53:36.969Z,31.23
2018-11-11T00:56:06.750Z,32.63
2018-11-11T00:58:36.413Z,30.50
2018-11-11T01:01:06.084Z,29.33
2018-11-11T01:03:35.878Z,31.10
2018-11-11T01:06:05.677Z,28.93
2018-11-11T01:08:35.401Z,31.17
2018-11-11T01:11:05.196Z,32.00
2018-11-11T01:13:34.870Z,32.40
2018-11-11T01:16:04.726Z,34.67
2018-11-11T01:18:40.152Z,30.07
2018-11-11T01:21:14.660Z,29.80
2018-11-11T01:23:48.465Z,30.90
2018-11-11T01:26:18.227Z,28.63
2018-11-11T01:28:47.912Z,30.10
2018-11-11T01:31:17.592Z,29.07
2018-11-11T01:33:47.275Z,30.50
2018-11-11T01:36:16.911Z,29.47
2018-11-11T01:38:46.646Z,30.40
2018-11-11T01:41:16.468Z,30.27
2018-11-11T01:43:46.148Z,30.30
2018-11-11T01:46:15.825Z,30.37
2018-11-11T01:48:45.668Z,29.50
2018-11-11T01:51:15.405Z,32.80
2018-11-11T01:53:45.221Z,30.43
2018-11-11T01:56:15.060Z,32.07
2018-11-11T01:58:44.903Z,30.33
2018-11-11T02:01:14.352Z,30.27
2018-11-11T02:03:44.134Z,30.03
2018-11-11T02:06:13.925Z,31.77
2018-11-11T02:08:43.764Z,31.40
2018-11-11T02:11:13.396Z,31.00
2018-11-11T02:13:43.308Z,30.07
2018-11-11T02:16:13.073Z,30.60
2018-11-11T02:18:42.809Z,32.13
2018-11-11T02:21:12.733Z,30.90
2018-11-11T02:23:42.654Z,31.30
2018-11-11T02:26:12.417Z,30.90
2018-11-11T02:28:42.100Z,29.63
2018-11-11T02:31:11.841Z,32.83
2018-11-11T02:33:41.367Z,30.10
2018-11-11T02:36:11.146Z,29.43
2018-11-11T02:38:40.869Z,27.90
2018-11-11T02:41:10.604Z,28.50
2018-11-11T02:43:40.285Z,29.37
2018-11-11T02:46:09.818Z,28.93
2018-11-11T02:48:39.559Z,32.90
2018-11-11T02:51:09.665Z,30.83
2018-11-11T02:53:39.740Z,29.23
2018-11-11T02:56:09.416Z,31.70
2018-11-11T02:58:39.145Z,31.60
2018-11-11T03:01:08.842Z,31.50
2018-11-11T03:03:38.728Z,32.47
2018-11-11T03:06:08.847Z,33.50
2018-11-11T03:08:38.578Z,32.83
2018-11-11T03:11:08.627Z,30.87
2018-11-11T03:13:38.394Z,32.23
2018-11-11T03:16:08.195Z,32.10
2018-11-11T03:18:37.944Z,31.47
2018-11-11T03:21:07.645Z,32.97
2018-11-11T03:23:37.446Z,30.47
2018-11-11T03:26:07.625Z,31.97
2018-11-11T03:28:37.162Z,31.83
2018-11-11T03:31:06.961Z,32.13
2018-11-11T03:33:36.859Z,32.53
2018-11-11T03:36:06.941Z,33.07
2018-11-11T03:38:36.560Z,34.60
2018-11-11T03:41:06.214Z,33.70
2018-11-11T03:43:36.000Z,32.40
2018-11-11T03:46:05.856Z,32.37
2018-11-11T03:48:35.628Z,32.97
2018-11-11T03:51:05.284Z,32.00
2018-11-11T03:53:35.073Z,30.90
2018-11-11T03:56:04.793Z,31.80
2018-11-11T03:58:34.576Z,30.93
2018-11-11T04:01:04.582Z,28.83
2018-11-11T04:03:34.243Z,25.83
2018-11-11T04:06:04.089Z,25.03
2018-11-11T04:08:33.680Z,29.17
2018-11-11T04:11:03.336Z,31.17
2018-11-11T04:13:33.033Z,31.70
2018-11-11T04:16:02.789Z,31.70
2018-11-11T04:18:32.567Z,32.07
2018-11-11T04:21:02.314Z,32.63
2018-11-11T04:23:31.996Z,30.43
2018-11-11T04:26:01.709Z,33.20
2018-11-11T04:28:31.476Z,33.67
2018-11-11T04:31:01.230Z,31.30
2018-11-11T04:33:30.924Z,33.33
2018-11-11T04:36:00.432Z,33.47
2018-11-11T04:38:30.064Z,33.33
2018-11-11T04:40:59.943Z,33.80
2018-11-11T04:43:29.589Z,33.30
2018-11-11T04:45:59.304Z,33.70
2018-11-11T04:48:28.887Z,33.17
2018-11-11T04:50:58.526Z,33.57
2018-11-11T04:53:28.300Z,32.80
2018-11-11T04:55:57.939Z,32.63
2018-11-11T04:58:27.711Z,31.30
2018-11-11T05:00:57.463Z,32.40
2018-11-11T05:03:27.073Z,31.70
2018-11-11T05:05:56.820Z,31.73
2018-11-11T05:08:26.595Z,31.77
2018-11-11T05:10:56.449Z,30.53
2018-11-11T05:13:26.080Z,30.07
2018-11-11T05:15:55.617Z,30.47
2018-11-11T05:18:25.264Z,30.73
2018-11-11T05:20:54.844Z,32.17
2018-11-11T05:23:24.509Z,30.63
2018-11-11T05:25:54.199Z,28.90
2018-11-11T05:28:23.751Z,31.43
2018-11-11T05:30:53.553Z,30.93
2018-11-11T05:33:23.221Z,29.67
2018-11-11T05:35:52.984Z,29.23
2018-11-11T05:38:22.573Z,30.20
2018-11-11T05:40:52.106Z,30.57
2018-11-11T05:43:21.922Z,31.13
2018-11-11T05:45:51.597Z,30.97
2018-11-11T05:48:21.384Z,29.53
2018-11-11T05:50:51.117Z,28.73
2018-11-11T05:53:21.100Z,26.13
2018-11-11T05:55:50.741Z,23.30
2018-11-11T05:58:20.434Z,22.23
2018-11-11T06:00:49.980Z,20.40
2018-11-11T06:03:19.781Z,18.17
2018-11-11T06:05:49.680Z,19.17
2018-11-11T06:08:19.300Z,17.30
2018-11-11T06:10:49.040Z,17.30
2018-11-11T06:13:18.681Z,15.77
2018-11-11T06:15:48.338Z,18.47
2018-11-11T06:18:18.306Z,18.40
2018-11-11T06:20:47.963Z,21.87
2018-11-11T06:23:17.636Z,17.77
2018-11-11T06:25:47.273Z,16.13
2018-11-11T06:28:16.942Z,16.10
2018-11-11T06:30:46.663Z,16.87
2018-11-11T06:33:16.312Z,17.43
2018-11-11T06:35:45.919Z,16.10
2018-11-11T06:38:15.825Z,16.70
2018-11-11T06:40:47.451Z,16.27
2018-11-11T06:43:20.290Z,16.20
2018-11-11T06:45:53.106Z,16.43
2018-11-11T06:48:22.841Z,14.90
2018-11-11T06:50:52.486Z,17.50
2018-11-11T06:53:22.252Z,16.67
2018-11-11T06:55:51.995Z,15.70
2018-11-11T06:58:21.739Z,15.87
2018-11-11T07:00:51.521Z,16.50
2018-11-11T07:04:02.082Z,16.97
2018-11-11T07:06:32.337Z,15.00
2018-11-11T07:09:02.124Z,16.27
2018-11-11T07:11:31.804Z,17.03
2018-11-11T07:14:08.301Z,17.47
2018-11-11T07:16:38.160Z,17.37
2018-11-11T07:19:08.033Z,15.90
2018-11-11T07:21:37.893Z,15.50
2018-11-11T07:24:07.672Z,15.57
2018-11-11T07:26:37.314Z,15.13
2018-11-11T07:29:07.688Z,17.23
2018-11-11T07:31:37.441Z,18.00
2018-11-11T07:34:07.210Z,16.60
2018-11-11T07:36:36.900Z,18.27
2018-11-11T07:39:10.315Z,16.27
2018-11-11T07:41:40.125Z,18.73
2018-11-11T07:44:10.041Z,16.63
2018-11-11T07:46:39.798Z,17.03
2018-11-11T07:49:09.557Z,16.97
2018-11-11T07:51:39.329Z,17.70
2018-11-11T07:54:09.085Z,15.13
2018-11-11T07:56:38.799Z,16.70
2018-11-11T07:59:08.704Z,18.30
2018-11-11T08:01:38.438Z,17.13
2018-11-11T08:04:08.384Z,19.73
2018-11-11T08:06:38.039Z,19.47
2018-11-11T08:09:08.571Z,16.70
2018-11-11T08:11:49.036Z,17.93
2018-11-11T08:14:18.801Z,17.77
2018-11-11T08:16:48.367Z,18.00
2018-11-11T08:19:18.034Z,19.20
2018-11-11T08:21:47.803Z,16.17
2018-11-11T08:24:18.024Z,16.80
2018-11-11T08:26:47.781Z,15.93
2018-11-11T08:29:17.501Z,17.00
2018-11-11T08:31:47.285Z,15.90
2018-11-11T08:34:17.096Z,16.87
2018-11-11T08:36:47.146Z,16.07
2018-11-11T08:39:17.437Z,15.50
2018-11-11T08:41:47.437Z,16.93
2018-11-11T08:44:17.078Z,14.97
2018-11-11T08:46:48.203Z,13.57
2018-11-11T08:49:17.936Z,19.67
2018-11-11T08:51:47.593Z,16.60
2018-11-11T08:54:17.363Z,16.60
2018-11-11T08:56:47.152Z,14.60
2018-11-11T08:59:16.898Z,15.13
2018-11-11T09:01:46.616Z,16.43
2018-11-11T09:04:17.955Z,13.87
2018-11-11T09:06:49.002Z,14.53
2018-11-11T09:09:18.797Z,15.07
2018-11-11T09:11:48.573Z,15.93
2018-11-11T09:14:18.139Z,14.47
2018-11-11T09:16:47.705Z,13.07
2018-11-11T09:19:17.408Z,13.80
2018-11-11T09:21:47.133Z,16.00
2018-11-11T09:24:16.726Z,15.67
2018-11-11T09:26:46.385Z,16.27
2018-11-11T09:29:16.219Z,14.60
2018-11-11T09:31:45.891Z,33.30
2018-11-11T09:34:15.653Z,88.90
2018-11-11T09:36:45.267Z,126.63
2018-11-11T09:39:15.276Z,42.47
2018-11-11T09:41:44.992Z,23.10
2018-11-11T09:44:14.668Z,24.30
2018-11-11T09:46:44.217Z,28.60
2018-11-11T09:49:14.173Z,54.67
2018-11-11T09:51:44.928Z,168.93
2018-11-11T09:54:14.897Z,34.80
2018-11-11T09:56:44.664Z,26.90
2018-11-11T09:59:14.353Z,27.63
2018-11-11T10:01:44.133Z,22.80
2018-11-11T10:04:18.580Z,22.00
2018-11-11T10:06:54.966Z,23.87
2018-11-11T10:09:36.872Z,25.53
2018-11-11T10:12:44.601Z,22.73
2018-11-11T10:15:49.785Z,19.57
2018-11-11T10:18:27.890Z,17.27
2018-11-11T10:21:07.573Z,19.93
2018-11-11T10:23:45.641Z,16.07
2018-11-11T10:26:36.810Z,16.67
2018-11-11T10:29:09.689Z,14.80
2018-11-11T10:32:15.733Z,14.73
2018-11-11T10:34:49.299Z,14.53
2018-11-11T10:37:24.098Z,13.10
2018-11-11T10:40:02.182Z,15.03
2018-11-11T10:42:36.948Z,15.27
2018-11-11T10:45:17.016Z,14.50
2018-11-11T10:47:51.635Z,15.37
2018-11-11T10:50:24.691Z,14.00
2018-11-11T10:52:54.380Z,14.77
2018-11-11T10:55:24.155Z,15.50
2018-11-11T10:57:54.212Z,14.43
2018-11-11T11:00:32.888Z,12.83
2018-11-11T11:03:02.735Z,13.47
2018-11-11T11:05:32.516Z,12.77
2018-11-11T11:08:02.309Z,14.80
2018-11-11T11:10:32.089Z,12.90
2018-11-11T11:13:01.747Z,13.80
2018-11-11T11:15:31.621Z,13.93
2018-11-11T11:18:01.367Z,14.07
2018-11-11T11:20:31.265Z,13.17
2018-11-11T11:23:00.947Z,15.80
2018-11-11T11:25:30.726Z,15.47
2018-11-11T11:28:00.470Z,14.27
2018-11-11T11:30:30.225Z,14.40
2018-11-11T11:32:59.989Z,15.17
2018-11-11T11:35:29.726Z,13.00
2018-11-11T11:37:59.467Z,14.93
2018-11-11T11:40:29.166Z,14.47
2018-11-11T11:42:58.884Z,12.70
2018-11-11T11:45:28.385Z,13.53
2018-11-11T11:47:58.081Z,14.73
2018-11-11T11:50:27.947Z,13.90
2018-11-11T11:52:57.855Z,14.97
2018-11-11T11:55:27.328Z,14.30
2018-11-11T11:58:12.673Z,16.17
2018-11-11T12:00:42.521Z,13.60
2018-11-11T12:03:12.116Z,13.97
2018-11-11T12:05:41.988Z,16.40
2018-11-11T12:08:12.232Z,15.47
2018-11-11T12:10:41.967Z,15.73
2018-11-11T12:13:12.445Z,14.30
2018-11-11T12:15:42.589Z,15.80
2018-11-11T12:18:12.856Z,13.53
2018-11-11T12:20:42.895Z,16.57
2018-11-11T12:23:12.961Z,14.87
2018-11-11T12:25:42.625Z,14.90
2018-11-11T12:28:12.306Z,16.30
2018-11-11T12:30:42.294Z,15.43
2018-11-11T12:33:12.015Z,17.93
2018-11-11T12:35:43.205Z,18.00
2018-11-11T12:38:13.272Z,17.10
2018-11-11T12:40:42.640Z,16.70
2018-11-11T12:43:12.473Z,18.13
2018-11-11T12:45:41.908Z,19.10
2018-11-11T12:48:11.325Z,18.43
2018-11-11T12:50:40.728Z,19.70
2018-11-11T12:53:10.123Z,18.93
2018-11-11T12:55:39.568Z,19.57
2018-11-11T12:58:09.158Z,18.87
2018-11-11T13:00:38.522Z,17.47
2018-11-11T13:03:08.272Z,17.20
2018-11-11T13:05:37.657Z,19.47
2018-11-11T13:08:07.207Z,17.87
2018-11-11T13:10:36.596Z,19.63
2018-11-11T13:13:06.372Z,17.03
2018-11-11T13:15:36.221Z,19.37
2018-11-11T13:18:05.863Z,19.10
2018-11-11T13:20:35.718Z,19.17
2018-11-11T13:23:05.611Z,16.80
2018-11-11T13:25:35.310Z,18.10
2018-11-11T13:28:05.185Z,18.70
2018-11-11T13:30:34.880Z,18.57
2018-11-11T13:33:04.820Z,18.57
2018-11-11T13:35:34.563Z,18.30
2018-11-11T13:38:04.341Z,18.90
2018-11-11T13:40:33.954Z,17.20
2018-11-11T13:43:03.799Z,18.60
2018-11-11T13:45:33.660Z,18.23
2018-11-11T13:48:03.301Z,17.53
2018-11-11T13:50:32.976Z,19.70
2018-11-11T13:53:02.517Z,20.30
2018-11-11T13:55:32.277Z,24.63
2018-11-11T13:58:02.109Z,24.43
2018-11-11T14:00:31.500Z,24.10
2018-11-11T14:03:00.901Z,22.07
2018-11-11T14:05:30.304Z,24.10
2018-11-11T14:07:59.795Z,24.70
2018-11-11T14:10:28.617Z,26.40
2018-11-11T14:12:57.999Z,25.73
2018-11-11T14:15:27.372Z,25.30
2018-11-11T14:17:57.245Z,24.80
2018-11-11T14:20:26.957Z,25.70
2018-11-11T14:22:56.905Z,24.80
2018-11-11T14:25:28.613Z,25.17
2018-11-11T14:27:57.981Z,23.30
2018-11-11T14:30:28.260Z,23.90
2018-11-11T14:32:58.619Z,24.13
2018-11-11T14:35:28.025Z,22.87
2018-11-11T14:37:57.458Z,22.83
2018-11-11T14:40:28.961Z,24.27
2018-11-11T14:42:58.495Z,24.60
2018-11-11T14:45:28.112Z,28.53
2018-11-11T14:47:58.252Z,26.53
2018-11-11T14:50:27.693Z,26.97
2018-11-11T14:52:57.127Z,26.90
2018-11-11T14:55:27.830Z,26.87
2018-11-11T14:57:57.738Z,27.17
2018-11-11T15:00:28.565Z,26.87
2018-11-11T15:03:04.505Z,27.40
2018-11-11T15:05:34.126Z,27.60
2018-11-11T15:08:03.762Z,28.70
2018-11-11T15:10:33.169Z,27.27
2018-11-11T15:13:03.039Z,29.80
2018-11-11T15:15:32.864Z,30.50
2018-11-11T15:18:02.669Z,34.70
2018-11-11T15:20:32.931Z,31.67
2018-11-11T15:23:02.316Z,35.83
2018-11-11T15:25:32.165Z,36.60
2018-11-11T15:28:01.482Z,38.63
2018-11-11T15:30:34.043Z,37.73
2018-11-11T15:33:03.984Z,37.07
2018-11-11T15:35:33.452Z,37.33
2018-11-11T15:38:02.916Z,39.37
2018-11-11T15:40:33.572Z,35.57
2018-11-11T15:43:03.141Z,35.40
2018-11-11T15:45:33.647Z,36.70
2018-11-11T15:48:03.409Z,36.57
2018-11-11T15:50:33.852Z,35.13
2018-11-11T15:53:04.443Z,36.83
2018-11-11T15:55:35.605Z,36.13
2018-11-11T15:58:05.017Z,36.87
2018-11-11T16:00:38.155Z,37.50
2018-11-11T16:03:07.885Z,36.27
2018-11-11T16:05:37.674Z,36.87
2018-11-11T16:08:07.417Z,37.23
2018-11-11T16:10:36.901Z,38.23
2018-11-11T16:13:06.778Z,36.17
2018-11-11T16:15:38.393Z,39.20
2018-11-11T16:18:09.525Z,36.07
2018-11-11T16:20:39.428Z,38.07
2018-11-11T16:23:09.630Z,35.73
2018-11-11T16:25:39.334Z,36.90
2018-11-11T16:28:09.232Z,34.60
2018-11-11T16:30:39.451Z,35.27
2018-11-11T16:33:09.981Z,35.07
2018-11-11T16:35:39.589Z,35.90
2018-11-11T16:38:09.400Z,33.73
2018-11-11T16:40:39.210Z,35.70
2018-11-11T16:43:08.715Z,35.93
2018-11-11T16:45:38.543Z,37.97
2018-11-11T16:48:08.173Z,38.67
2018-11-11T16:50:38.101Z,37.53
2018-11-11T16:53:09.001Z,38.20
2018-11-11T16:55:38.899Z,40.27
2018-11-11T16:58:08.292Z,35.37
2018-11-11T17:00:38.393Z,37.80
2018-11-11T17:03:08.829Z,38.20
2018-11-11T17:05:38.763Z,38.10
2018-11-11T17:08:08.194Z,37.73
2018-11-11T17:10:38.335Z,38.53
2018-11-11T17:13:11.961Z,37.63
2018-11-11T17:15:41.356Z,37.30
2018-11-11T17:18:11.185Z,36.40
2018-11-11T17:20:40.981Z,37.97
2018-11-11T17:23:10.706Z,38.17
2018-11-11T17:25:41.231Z,38.70
2018-11-11T17:28:14.133Z,35.83
2018-11-11T17:30:47.832Z,38.23
2018-11-11T17:33:22.431Z,39.30
2018-11-11T17:35:57.636Z,36.70
2018-11-11T17:38:31.220Z,39.03
2018-11-11T17:41:02.089Z,38.57
2018-11-11T17:43:34.841Z,36.87
2018-11-11T17:46:07.576Z,36.77
2018-11-11T17:48:39.578Z,37.30
2018-11-11T17:51:12.662Z,36.73
2018-11-11T17:53:45.793Z,36.57
2018-11-11T17:56:20.131Z,38.60
2018-11-11T17:58:53.849Z,39.67
2018-11-11T18:01:25.546Z,39.73
2018-11-11T18:03:59.335Z,36.30
2018-11-11T18:06:31.041Z,38.47
2018-11-11T18:09:03.712Z,37.83
2018-11-11T18:11:36.768Z,39.47
2018-11-11T18:14:07.101Z,35.40
2018-11-11T18:16:40.242Z,35.93
2018-11-11T18:19:11.914Z,38.90
2018-11-11T18:21:43.838Z,38.67
2018-11-11T18:24:16.700Z,36.83
2018-11-11T18:26:49.449Z,40.30
2018-11-11T18:29:20.372Z,40.43
2018-11-11T18:31:55.254Z,43.17
2018-11-11T18:34:28.454Z,46.47
2018-11-11T18:37:01.749Z,39.67
2018-11-11T18:39:36.564Z,41.77
2018-11-11T18:42:08.655Z,40.37
2018-11-11T18:44:43.099Z,40.63
2018-11-11T18:47:15.772Z,39.50
2018-11-11T18:49:48.601Z,40.53
2018-11-11T18:52:22.082Z,39.97
2018-11-11T18:54:53.219Z,38.43
2018-11-11T18:57:27.367Z,37.83
2018-11-11T18:59:59.970Z,39.40
2018-11-11T19:02:30.862Z,36.87
2018-11-11T19:05:02.998Z,38.43
2018-11-11T19:07:37.559Z,35.43
2018-11-11T19:13:01.084Z,36.90
2018-11-11T19:15:35.786Z,35.20
2018-11-11T19:18:06.895Z,34.27
2018-11-11T19:20:37.470Z,34.43
2018-11-11T19:23:08.939Z,35.57
2018-11-11T19:25:40.179Z,33.83
2018-11-11T19:28:12.244Z,32.77
2018-11-11T19:30:44.249Z,35.07
2018-11-11T19:33:17.322Z,33.80
2018-11-11T19:35:49.070Z,33.67
2018-11-11T19:38:20.525Z,32.50
2018-11-11T19:40:49.560Z,33.73
2018-11-11T19:43:21.565Z,35.43
2018-11-11T19:45:53.281Z,36.20
2018-11-11T19:48:32.826Z,35.70
2018-11-11T19:51:06.090Z,35.10
2018-11-11T19:53:39.453Z,34.30
2018-11-11T19:56:12.069Z,35.90
2018-11-11T19:58:44.000Z,37.20
2018-11-11T20:01:17.746Z,34.60
2018-11-11T20:03:56.745Z,36.57
2018-11-11T20:06:30.366Z,34.83
2018-11-11T20:09:04.323Z,34.57
2018-11-11T20:11:38.717Z,34.60
2018-11-11T20:14:11.597Z,34.40
2018-11-11T20:16:46.940Z,30.80
2018-11-11T20:19:17.228Z,32.33
2018-11-11T20:21:58.604Z,30.80
2018-11-11T20:24:28.600Z,35.37
2018-11-11T20:27:03.870Z,33.93
2018-11-11T20:29:36.749Z,33.67
2018-11-11T20:32:11.295Z,33.20
2018-11-11T20:34:45.810Z,32.07
2018-11-11T20:37:17.998Z,33.03
2018-11-11T20:39:55.189Z,35.27
2018-11-11T20:42:30.369Z,32.90
2018-11-11T20:45:04.269Z,35.30
2018-11-11T20:47:37.247Z,32.47
2018-11-11T20:50:12.179Z,33.70
2018-11-11T20:52:55.841Z,32.93
2018-11-11T20:55:31.914Z,32.77
2018-11-11T20:58:06.435Z,32.50
2018-11-11T21:00:41.124Z,35.00
2018-11-11T21:03:18.093Z,34.77
2018-11-11T21:05:51.997Z,33.63
2018-11-11T21:08:21.900Z,32.90
2018-11-11T21:10:51.645Z,33.87
2018-11-11T21:13:21.470Z,34.80
2018-11-11T21:15:51.102Z,30.67
2018-11-11T21:18:20.921Z,34.10
2018-11-11T21:20:50.562Z,32.80
2018-11-11T21:23:19.751Z,32.57
2018-11-11T21:25:48.907Z,35.57
2018-11-11T21:28:18.044Z,33.40
2018-11-11T21:30:47.183Z,33.00
2018-11-11T21:33:16.280Z,32.67
2018-11-11T21:35:45.376Z,33.47
2018-11-11T21:38:14.482Z,33.90
2018-11-11T21:40:43.542Z,31.67
2018-11-11T21:43:12.644Z,32.97
2018-11-11T21:45:41.753Z,32.43
2018-11-11T21:48:10.911Z,33.07
2018-11-11T21:50:39.923Z,33.30
2018-11-11T21:53:31.222Z,31.93
2018-11-11T21:56:00.767Z,34.70
2018-11-11T21:58:29.975Z,33.13
2018-11-11T22:00:59.066Z,34.47
2018-11-11T22:03:28.217Z,33.23
2018-11-11T22:05:57.519Z,34.57
2018-11-11T22:08:26.535Z,33.30
2018-11-11T22:10:55.673Z,32.40
2018-11-11T22:13:24.825Z,34.00
2018-11-11T22:15:53.947Z,34.60
2018-11-11T22:18:23.011Z,33.20
2018-11-11T22:20:52.123Z,33.83
2018-11-11T22:23:21.228Z,33.87
2018-11-11T22:25:50.307Z,30.83
2018-11-11T22:28:19.398Z,33.10
2018-11-11T22:30:48.431Z,30.77
2018-11-11T22:33:17.486Z,32.60
2018-11-11T22:35:46.623Z,32.40
2018-11-11T22:38:15.583Z,31.70
2018-11-11T22:40:44.757Z,32.50
2018-11-11T22:43:13.764Z,29.80
2018-11-11T22:45:42.862Z,31.60
2018-11-11T22:48:11.952Z,30.30
2018-11-11T22:50:41.685Z,30.40
2018-11-11T22:53:11.268Z,31.80
2018-11-11T22:55:41.015Z,31.97
2018-11-11T22:58:10.683Z,31.57
2018-11-11T23:00:44.786Z,32.30
2018-11-11T23:03:14.604Z,33.70
2018-11-11T23:05:44.389Z,35.40
2018-11-11T23:08:14.073Z,32.60
2018-11-11T23:10:43.730Z,34.37
2018-11-11T23:13:13.492Z,34.63
2018-11-11T23:15:43.351Z,32.73
2018-11-11T23:18:13.116Z,35.53
2018-11-11T23:20:42.775Z,34.03
2018-11-11T23:23:12.621Z,31.93
2018-11-11T23:25:42.302Z,34.10
2018-11-11T23:28:12.092Z,33.47
2018-11-11T23:30:41.705Z,34.10
2018-11-11T23:33:11.603Z,34.57
2018-11-11T23:35:41.389Z,32.73
2018-11-11T23:38:11.158Z,34.00
2018-11-11T23:40:40.913Z,35.80
2018-11-11T23:43:10.585Z,34.80
2018-11-11T23:45:40.329Z,37.63
2018-11-11T23:48:10.111Z,36.73
2018-11-11T23:50:39.772Z,38.87
2018-11-11T23:53:09.456Z,37.90
2018-11-11T23:55:39.093Z,36.80
2018-11-11T23:58:08.771Z,36.70
